Time;durP1;ratioP1;P1;durP2;ratioP2;P2;SDS_P1;SDS_P2;PMS_P1;PMS_P2;Temp;Humidity;BMP_temperature;BMP_pressure;BME280_temperature;BME280_humidity;BME280_pressure;Samples;Min_cycle;Max_cycle;Signal;HPM_P1;HPM_P2
2021/12/19 00:04:43;;;;;;;3.05;1.10;;;19.80;50.70;;;;;;5073299;28;20032;-94
2021/12/19 00:09:53;;;;;;;2.55;0.98;;;19.70;50.70;;;;;;5073217;28;20064;-93
2021/12/19 00:12:18;;;;;;;2.53;1.10;;;19.70;50.80;;;;;;5071956;28;20023;-93
2021/12/19 00:14:44;;;;;;;2.92;1.10;;;19.70;50.80;;;;;;5074422;28;20025;-91
2021/12/19 00:17:10;;;;;;;3.55;1.08;;;19.70;50.80;;;;;;5075711;28;20028;-93
2021/12/19 00:19:35;;;;;;;4.65;1.15;;;19.60;50.70;;;;;;5076802;28;20090;-91
2021/12/19 00:22:01;;;;;;;3.17;1.10;;;19.60;50.70;;;;;;5075695;28;20049;-92
2021/12/19 00:24:29;;;;;;;3.53;1.10;;;19.60;50.70;;;;;;5075596;28;20056;-94
2021/12/19 00:26:54;;;;;;;2.80;1.20;;;19.60;50.80;;;;;;5075611;28;20028;-92
2021/12/19 00:29:20;;;;;;;1.90;1.02;;;19.60;50.80;;;;;;5075458;28;20355;-93
2021/12/19 00:31:48;;;;;;;3.72;1.10;;;19.60;50.90;;;;;;5076572;28;20103;-91
2021/12/19 00:34:15;;;;;;;3.80;1.08;;;19.50;50.80;;;;;;5075457;28;20024;-96
2021/12/19 00:36:41;;;;;;;2.85;1.13;;;19.50;50.80;;;;;;5075176;28;20021;-92
2021/12/19 00:39:07;;;;;;;3.55;1.55;;;19.50;50.80;;;;;;5076528;28;20071;-92
2021/12/19 00:41:33;;;;;;;2.25;1.10;;;19.50;50.80;;;;;;5076566;28;20036;-93
2021/12/19 00:44:10;;;;;;;3.38;1.00;;;19.40;50.90;;;;;;5075335;28;20108;-94
2021/12/19 00:46:50;;;;;;;2.45;1.20;;;19.40;50.90;;;;;;5074801;28;20048;-93
2021/12/19 00:49:17;;;;;;;1.10;0.85;;;19.40;50.90;;;;;;5076301;28;20068;-92
2021/12/19 00:51:43;;;;;;;3.58;1.20;;;19.40;50.90;;;;;;5075106;28;20017;-94
2021/12/19 00:54:09;;;;;;;2.33;0.90;;;19.40;51.00;;;;;;5076216;28;20134;-92
2021/12/19 00:56:37;;;;;;;2.45;1.13;;;19.40;51.00;;;;;;5076050;28;20016;-91
2021/12/19 00:59:03;;;;;;;1.83;0.95;;;19.30;51.00;;;;;;5076163;28;20032;-92
2021/12/19 01:01:28;;;;;;;1.80;1.05;;;19.30;51.00;;;;;;5076008;28;20021;-90
2021/12/19 01:03:54;;;;;;;2.42;0.98;;;19.30;51.00;;;;;;5074778;28;20025;-94
2021/12/19 01:06:20;;;;;;;3.15;1.20;;;19.30;51.10;;;;;;5076139;28;20044;-95
2021/12/19 01:08:47;;;;;;;2.92;1.10;;;19.30;51.10;;;;;;5076142;28;20099;-90
2021/12/19 01:11:13;;;;;;;2.13;1.15;;;19.20;51.10;;;;;;5075906;28;20339;-95
2021/12/19 01:13:38;;;;;;;2.75;1.20;;;19.20;51.10;;;;;;5076044;28;20017;-95
2021/12/19 01:16:04;;;;;;;1.60;0.82;;;19.20;51.10;;;;;;5074773;28;20027;-92
2021/12/19 01:18:30;;;;;;;2.92;0.90;;;19.20;51.20;;;;;;5074432;28;20128;-91
2021/12/19 01:20:56;;;;;;;2.17;1.00;;;19.20;51.20;;;;;;5075668;28;20024;-91
2021/12/19 01:23:22;;;;;;;2.47;0.90;;;19.20;51.20;;;;;;5074371;28;20024;-92
2021/12/19 01:25:49;;;;;;;2.45;0.88;;;19.10;51.20;;;;;;5073613;28;20378;-93
2021/12/19 01:28:15;;;;;;;1.55;0.88;;;19.10;51.20;;;;;;5075536;28;20051;-94
2021/12/19 01:30:41;;;;;;;4.45;1.00;;;19.10;51.30;;;;;;5074421;28;20542;-94
2021/12/19 01:33:06;;;;;;;1.92;0.95;;;19.10;51.30;;;;;;5074478;28;20104;-92
2021/12/19 01:35:32;;;;;;;1.52;0.80;;;19.00;51.30;;;;;;5075353;28;20094;-93
2021/12/19 01:37:58;;;;;;;2.95;1.00;;;19.00;51.30;;;;;;5075346;28;20428;-90
2021/12/19 01:40:24;;;;;;;2.45;1.00;;;19.00;51.40;;;;;;5074319;28;20056;-93
2021/12/19 01:42:54;;;;;;;1.92;1.08;;;19.00;51.40;;;;;;5074213;28;20017;-93
2021/12/19 01:45:36;;;;;;;2.60;0.80;;;19.00;51.40;;;;;;5074293;28;20035;-90
2021/12/19 01:48:05;;;;;;;3.20;1.20;;;19.00;51.40;;;;;;5073947;28;20572;-90
2021/12/19 01:50:33;;;;;;;2.60;0.80;;;18.90;51.40;;;;;;5073989;28;20426;-91
2021/12/19 01:53:01;;;;;;;1.60;0.80;;;18.90;51.40;;;;;;5074952;28;20017;-91
2021/12/19 01:55:27;;;;;;;2.30;0.90;;;18.90;51.50;;;;;;5073880;28;20467;-95
2021/12/19 01:57:53;;;;;;;1.85;0.80;;;18.90;51.50;;;;;;5073867;28;20177;-91
2021/12/19 02:00:22;;;;;;;2.03;0.80;;;18.90;52.50;;;;;;5073878;28;20508;-93
2021/12/19 02:02:48;;;;;;;2.90;1.00;;;18.90;51.50;;;;;;5073704;28;20020;-93
2021/12/19 02:05:14;;;;;;;3.30;0.90;;;18.80;51.50;;;;;;5073623;28;20023;-92
2021/12/19 02:07:46;;;;;;;2.40;0.88;;;18.80;51.50;;;;;;5073653;28;20369;-93
2021/12/19 02:10:11;;;;;;;3.20;0.90;;;18.80;51.50;;;;;;5074696;28;20024;-94
2021/12/19 02:12:38;;;;;;;2.53;1.05;;;18.80;51.60;;;;;;5073477;28;20028;-92
2021/12/19 02:15:04;;;;;;;2.10;0.70;;;18.80;51.60;;;;;;5073444;28;20028;-91
2021/12/19 02:17:30;;;;;;;3.08;0.98;;;18.80;51.60;;;;;;5073135;28;20032;-89
2021/12/19 02:19:57;;;;;;;1.58;0.80;;;18.70;51.50;;;;;;5073425;28;20487;-93
2021/12/19 02:22:23;;;;;;;1.13;0.80;;;18.70;51.60;;;;;;5073341;28;20024;-92
2021/12/19 02:24:48;;;;;;;2.10;0.82;;;18.70;51.60;;;;;;5073094;28;20382;-92
2021/12/19 02:27:14;;;;;;;1.70;0.80;;;18.70;51.60;;;;;;5073172;28;20462;-94
2021/12/19 02:29:40;;;;;;;3.10;1.00;;;18.70;51.70;;;;;;5073220;28;20028;-93
2021/12/19 02:32:06;;;;;;;2.03;0.80;;;18.60;51.60;;;;;;5074248;28;20070;-95
2021/12/19 02:34:38;;;;;;;2.13;0.90;;;18.60;51.60;;;;;;5073216;28;20028;-92
2021/12/19 02:37:22;;;;;;;2.92;1.13;;;18.60;51.60;;;;;;5074265;28;20466;-90
2021/12/19 02:40:22;;;;;;;2.17;0.80;;;18.60;51.70;;;;;;5073073;28;20031;-93
2021/12/19 02:48:11;;;;;;;2.45;0.90;;;18.60;51.80;;;;;;5073847;28;20043;-92
2021/12/19 02:50:44;;;;;;;2.83;0.90;;;18.50;51.80;;;;;;5074064;28;20031;-95
2021/12/19 02:53:11;;;;;;;2.00;0.90;;;18.50;51.80;;;;;;5074062;28;20034;-92
2021/12/19 02:55:37;;;;;;;3.28;0.90;;;18.50;51.80;;;;;;5072910;28;20056;-93
2021/12/19 02:58:02;;;;;;;1.58;0.90;;;18.50;51.80;;;;;;5072646;28;20028;-92
2021/12/19 03:00:28;;;;;;;2.45;0.90;;;18.50;51.80;;;;;;5074021;28;20016;-93
2021/12/19 03:02:54;;;;;;;3.58;0.85;;;18.40;51.80;;;;;;5072785;28;20111;-94
2021/12/19 03:05:20;;;;;;;1.48;0.90;;;18.40;51.80;;;;;;5072525;28;20025;-91
2021/12/19 03:07:46;;;;;;;2.53;0.90;;;18.40;51.90;;;;;;5074023;28;20021;-91
2021/12/19 03:10:56;;;;;;;1.63;0.75;;;18.40;51.90;;;;;;5072334;28;20024;-92
2021/12/19 03:13:27;;;;;;;2.70;0.95;;;18.40;51.90;;;;;;5073521;28;20024;-92
2021/12/19 03:18:39;;;;;;;1.90;0.73;;;18.40;52.00;;;;;;5074100;28;20028;-90
2021/12/19 03:21:05;;;;;;;3.10;0.80;;;18.30;52.00;;;;;;5089203;28;20037;-94
2021/12/19 03:23:31;;;;;;;2.83;0.93;;;18.30;51.90;;;;;;5072475;28;20035;-93
2021/12/19 03:25:57;;;;;;;2.92;0.93;;;18.30;51.90;;;;;;5073615;28;20024;-94
2021/12/19 03:28:22;;;;;;;1.95;0.73;;;18.30;51.90;;;;;;5073582;28;20068;-93
2021/12/19 03:30:48;;;;;;;3.83;0.80;;;18.30;52.00;;;;;;5073682;28;20024;-91
2021/12/19 03:33:15;;;;;;;2.63;0.85;;;18.30;52.00;;;;;;5072705;28;20150;-91
2021/12/19 03:35:42;;;;;;;2.28;0.85;;;18.30;52.00;;;;;;5072317;28;20027;-94
2021/12/19 03:38:10;;;;;;;1.70;0.70;;;18.20;52.00;;;;;;5072388;28;20059;-93
2021/12/19 03:40:43;;;;;;;2.97;0.90;;;18.20;52.00;;;;;;5072333;28;20492;-92
2021/12/19 03:43:08;;;;;;;;;;;18.20;52.00;;;;;;5073914;28;20024;-94
2021/12/19 03:45:35;;;;;;;3.67;1.08;;;18.10;51.90;;;;;;5072123;28;20353;-93
2021/12/19 03:48:03;;;;;;;4.63;1.25;;;18.10;52.10;;;;;;5073189;28;20060;-94
2021/12/19 03:50:32;;;;;;;3.85;0.90;;;18.10;52.10;;;;;;5076248;28;20048;-90
2021/12/19 03:52:59;;;;;;;2.03;0.75;;;18.10;52.10;;;;;;5076164;28;20056;-92
2021/12/19 03:55:25;;;;;;;2.88;1.10;;;18.10;52.10;;;;;;5076071;28;20025;-91
2021/12/19 03:57:52;;;;;;;2.08;1.13;;;18.10;52.20;;;;;;5076051;28;20025;-93
2021/12/19 04:00:25;;;;;;;2.38;0.80;;;18.10;52.20;;;;;;5076084;28;20024;-93
2021/12/19 04:02:57;;;;;;;2.72;0.90;;;18.10;52.10;;;;;;5077217;28;20032;-92
2021/12/19 04:05:23;;;;;;;3.60;1.20;;;18.10;52.20;;;;;;5077309;28;20432;-92
2021/12/19 04:07:49;;;;;;;2.45;1.00;;;18.00;52.10;;;;;;5076085;28;20550;-91
2021/12/19 04:10:15;;;;;;;2.75;0.80;;;18.10;52.20;;;;;;5076761;28;20119;-94
2021/12/19 04:12:42;;;;;;;2.33;0.85;;;18.00;52.20;;;;;;5077125;28;20363;-94
2021/12/19 04:15:11;;;;;;;3.25;1.00;;;18.00;53.20;;;;;;5077068;28;20016;-94
2021/12/19 04:17:38;;;;;;;3.17;1.20;;;18.00;52.20;;;;;;5076850;28;20099;-91
2021/12/19 04:20:05;;;;;;;1.33;0.90;;;18.00;52.20;;;;;;5075739;28;20047;-94
2021/12/19 04:22:31;;;;;;;2.50;0.95;;;18.00;52.30;;;;;;5075801;28;20040;-90
2021/12/19 04:24:56;;;;;;;2.47;1.00;;;18.00;52.30;;;;;;5075418;28;20029;-91
2021/12/19 04:27:22;;;;;;;2.30;1.10;;;17.90;52.20;;;;;;5075767;28;20493;-92
2021/12/19 04:29:49;;;;;;;2.25;0.80;;;17.90;52.30;;;;;;5076647;28;20543;-95
2021/12/19 04:32:17;;;;;;;2.03;0.90;;;17.90;52.30;;;;;;5076869;28;20032;-94
2021/12/19 04:34:43;;;;;;;3.05;1.10;;;17.90;52.30;;;;;;5076654;28;20104;-96
2021/12/19 04:37:29;;;;;;;2.22;1.10;;;17.90;52.30;;;;;;5076606;28;20063;-92
2021/12/19 04:40:44;;;;;;;2.22;1.10;;;17.90;52.30;;;;;;5076360;28;20038;-93
2021/12/19 04:53:36;;;;;;;3.13;1.38;;;17.80;52.40;;;;;;5076683;28;20074;-91
2021/12/19 04:59:11;;;;;;;4.63;1.27;;;17.70;52.40;;;;;;5076394;28;20034;-94
2021/12/19 05:15:08;;;;;;;3.63;1.50;;;17.70;52.60;;;;;;5076239;28;20067;-93
2021/12/19 05:17:34;;;;;;;2.35;1.20;;;17.60;52.50;;;;;;5074630;28;20020;-93
2021/12/19 05:20:34;;;;;;;4.25;1.38;;;17.70;52.50;;;;;;5074541;28;20025;-95
2021/12/19 05:22:53;;;;;;;3.28;1.40;;;17.60;52.50;;;;;;5074439;28;20036;-90
2021/12/19 05:25:18;;;;;;;2.95;1.33;;;17.60;52.60;;;;;;5075609;28;20458;-91
2021/12/19 05:27:46;;;;;;;4.47;1.73;;;17.60;52.50;;;;;;5074576;28;20035;-92
2021/12/19 05:30:14;;;;;;;3.17;1.45;;;17.60;52.60;;;;;;5075456;28;20117;-91
2021/12/19 05:32:42;;;;;;;3.55;1.50;;;17.60;52.60;;;;;;5074444;28;20234;-91
2021/12/19 05:35:10;;;;;;;4.28;1.67;;;17.60;52.60;;;;;;5074195;28;20477;-91
2021/12/19 05:45:50;;;;;;;4.10;1.70;;;17.50;52.60;;;;;;5075282;28;20031;-91
2021/12/19 05:48:15;;;;;;;2.78;1.38;;;17.50;52.60;;;;;;5073872;28;20059;-94
2021/12/19 05:50:42;;;;;;;3.40;1.50;;;17.50;52.70;;;;;;5074029;28;20024;-93
2021/12/19 05:53:09;;;;;;;5.18;1.60;;;17.50;52.70;;;;;;5074055;28;20024;-93
2021/12/19 05:55:35;;;;;;;3.97;1.77;;;17.50;52.60;;;;;;5073819;28;20074;-93
2021/12/19 05:58:01;;;;;;;4.35;1.88;;;17.50;52.70;;;;;;5073979;28;20497;-93
2021/12/19 06:00:27;;;;;;;4.40;1.52;;;17.50;52.70;;;;;;5073533;28;20027;-90
2021/12/19 06:02:53;;;;;;;3.70;1.60;;;17.50;52.70;;;;;;5073763;28;20389;-90
2021/12/19 06:05:18;;;;;;;4.90;1.55;;;17.40;52.70;;;;;;5073714;28;20107;-90
2021/12/19 06:07:44;;;;;;;2.60;1.45;;;17.40;52.70;;;;;;5074822;28;20025;-94
2021/12/19 06:10:11;;;;;;;3.50;1.65;;;17.40;52.80;;;;;;5073377;28;20032;-92
2021/12/19 06:12:37;;;;;;;2.03;1.20;;;17.40;52.80;;;;;;5074298;28;20021;-92
2021/12/19 06:15:05;;;;;;;2.58;1.17;;;17.40;53.00;;;;;;5073487;28;20508;-95
2021/12/19 06:17:30;;;;;;;2.85;1.20;;;17.40;53.10;;;;;;5074577;28;20024;-90
2021/12/19 06:19:56;;;;;;;2.97;1.27;;;17.40;53.10;;;;;;5073283;28;20389;-92
2021/12/19 06:22:22;;;;;;;4.03;1.45;;;17.40;53.20;;;;;;5073295;28;20033;-91
2021/12/19 06:24:47;;;;;;;3.38;1.25;;;17.50;53.30;;;;;;5073458;28;20027;-94
2021/12/19 06:27:13;;;;;;;3.25;1.20;;;17.60;53.30;;;;;;5073369;28;20028;-93
2021/12/19 06:29:38;;;;;;;3.13;1.15;;;17.60;53.30;;;;;;5073009;28;20029;-91
2021/12/19 06:32:04;;;;;;;3.35;1.30;;;17.80;53.20;;;;;;5074204;28;20085;-93
2021/12/19 06:34:30;;;;;;;2.92;1.10;;;17.90;53.10;;;;;;5073244;28;20105;-90
2021/12/19 06:36:56;;;;;;;2.05;1.13;;;18.00;52.90;;;;;;5074315;28;20025;-94
2021/12/19 06:39:22;;;;;;;2.35;1.17;;;18.10;52.70;;;;;;5074283;28;20056;-91
2021/12/19 06:41:48;;;;;;;3.67;1.45;;;18.30;52.60;;;;;;5074173;28;20029;-91
2021/12/19 06:44:14;;;;;;;2.90;1.10;;;18.50;52.40;;;;;;5072930;28;20024;-89
2021/12/19 06:46:40;;;;;;;1.92;1.10;;;18.60;52.20;;;;;;5073787;28;20089;-90
2021/12/19 06:49:06;;;;;;;2.88;1.00;;;18.80;52.00;;;;;;5074132;28;20032;-91
2021/12/19 06:51:32;;;;;;;2.53;1.20;;;18.90;51.60;;;;;;5074110;28;20017;-91
2021/12/19 06:54:00;;;;;;;3.03;1.23;;;19.10;51.40;;;;;;5072761;28;20064;-91
2021/12/19 06:56:26;;;;;;;2.90;1.20;;;19.30;51.10;;;;;;5072797;28;20016;-91
2021/12/19 06:58:52;;;;;;;2.65;1.20;;;19.40;50.80;;;;;;5074044;28;20408;-91
2021/12/19 07:01:18;;;;;;;1.92;1.05;;;19.60;50.60;;;;;;5074012;28;20066;-93
2021/12/19 07:03:43;;;;;;;2.92;1.20;;;19.70;50.40;;;;;;5072772;28;20048;-92
2021/12/19 07:06:09;;;;;;;2.67;1.10;;;19.80;50.20;;;;;;5073806;28;20464;-95
2021/12/19 07:08:35;;;;;;;2.83;1.30;;;19.90;50.00;;;;;;5073710;28;20032;-93
2021/12/19 07:11:01;;;;;;;4.00;1.40;;;20.00;49.90;;;;;;5072615;28;20017;-92
2021/12/19 07:13:26;;;;;;;3.65;1.30;;;20.00;50.10;;;;;;5073978;28;20020;-94
2021/12/19 07:15:54;;;;;;;4.10;1.20;;;20.10;49.50;;;;;;5073649;28;20149;-92
2021/12/19 07:18:21;;;;;;;3.55;1.30;;;20.20;49.40;;;;;;5073192;28;20047;-91
2021/12/19 07:20:46;;;;;;;3.70;1.10;;;20.20;49.30;;;;;;5073863;28;20025;-93
2021/12/19 07:23:14;;;;;;;2.85;1.40;;;20.30;49.20;;;;;;5072773;28;20017;-93
2021/12/19 07:25:41;;;;;;;2.58;1.10;;;20.30;49.10;;;;;;5073646;28;20028;-90
2021/12/19 07:28:07;;;;;;;3.17;1.10;;;20.40;49.10;;;;;;5073697;28;20029;-94
2021/12/19 07:30:36;;;;;;;4.80;1.60;;;20.40;49.00;;;;;;5072414;28;20021;-92
2021/12/19 07:33:05;;;;;;;2.67;1.20;;;20.40;49.00;;;;;;5073838;28;20481;-93
2021/12/19 07:35:34;;;;;;;3.08;1.23;;;20.40;48.90;;;;;;5072441;28;20097;-91
2021/12/19 07:38:01;;;;;;;4.03;1.30;;;20.40;48.90;;;;;;5072548;28;20027;-92
2021/12/19 07:40:35;;;;;;;3.13;1.00;;;20.40;49.80;;;;;;5072752;28;20055;-89
2021/12/19 07:43:02;;;;;;;6.25;1.40;;;20.40;48.80;;;;;;5073511;28;20016;-92
2021/12/19 07:45:28;;;;;;;2.90;1.35;;;20.40;48.80;;;;;;5073502;28;20025;-92
2021/12/19 07:47:54;;;;;;;5.55;1.17;;;20.40;48.80;;;;;;5073430;28;20041;-92
2021/12/19 07:50:20;;;;;;;4.72;1.23;;;20.40;48.80;;;;;;5073395;28;20052;-94
2021/12/19 07:52:45;;;;;;;5.45;1.30;;;20.40;48.80;;;;;;5073494;28;20051;-93
2021/12/19 07:55:11;;;;;;;2.88;1.15;;;20.40;48.80;;;;;;5072240;28;20016;-91
2021/12/19 07:57:37;;;;;;;3.58;1.20;;;20.40;48.80;;;;;;5073218;28;20033;-91
2021/12/19 08:00:09;;;;;;;6.00;1.10;;;20.40;48.80;;;;;;5072247;28;20025;-92
2021/12/19 08:02:35;;;;;;;3.40;1.23;;;20.40;48.90;;;;;;5073311;28;20031;-92
2021/12/19 08:05:01;;;;;;;3.58;1.30;;;20.40;49.00;;;;;;5072163;28;20037;-96
2021/12/19 08:07:26;;;;;;;5.88;1.40;;;20.40;49.00;;;;;;5072116;28;20043;-93
2021/12/19 08:10:14;;;;;;;3.60;1.40;;;20.40;49.00;;;;;;5072058;28;20035;-92
2021/12/19 08:12:41;;;;;;;3.80;1.10;;;20.40;49.00;;;;;;5073267;28;20020;-94
2021/12/19 08:15:08;;;;;;;2.47;1.10;;;20.30;49.10;;;;;;5070084;28;20082;-93
2021/12/19 08:17:35;;;;;;;4.13;1.17;;;20.30;49.10;;;;;;5053008;28;20029;-94
2021/12/19 08:20:02;;;;;;;3.30;1.10;;;20.30;49.10;;;;;;5053007;28;20375;-90
2021/12/19 08:22:32;;;;;;;3.95;1.35;;;20.30;49.20;;;;;;5054952;28;20033;-96
2021/12/19 08:24:58;;;;;;;3.92;1.27;;;20.30;49.20;;;;;;5052707;28;20558;-94
2021/12/19 08:27:25;;;;;;;4.60;1.15;;;20.30;49.30;;;;;;5041557;28;20025;-94
2021/12/19 08:29:53;;;;;;;5.43;1.33;;;20.30;49.30;;;;;;5072051;28;20026;-93
2021/12/19 08:32:19;;;;;;;4.30;1.38;;;20.20;49.30;;;;;;5071015;28;20017;-94
2021/12/19 08:34:45;;;;;;;5.43;1.30;;;20.20;49.30;;;;;;5075942;28;20041;-92
2021/12/19 08:37:11;;;;;;;7.78;0.95;;;20.20;49.30;;;;;;5080119;28;20072;-92
2021/12/19 08:39:38;;;;;;;7.45;1.35;;;20.20;49.40;;;;;;5045677;28;20033;-94
2021/12/19 08:42:06;;;;;;;5.80;1.63;;;20.20;49.40;;;;;;5077707;28;20025;-93
2021/12/19 08:44:32;;;;;;;4.32;1.20;;;20.20;49.40;;;;;;5074971;28;20439;-95
2021/12/19 08:46:58;;;;;;;3.85;1.42;;;20.20;49.40;;;;;;5069557;28;20115;-93
2021/12/19 08:49:24;;;;;;;6.72;1.60;;;20.20;49.60;;;;;;5068822;28;20360;-94
2021/12/19 08:51:50;;;;;;;4.30;1.30;;;20.10;49.50;;;;;;5069968;28;20029;-94
2021/12/19 08:54:16;;;;;;;4.07;1.02;;;20.10;49.60;;;;;;5075476;28;20018;-95
2021/12/19 08:56:42;;;;;;;6.38;1.25;;;20.10;49.70;;;;;;5075386;28;20032;-93
2021/12/19 08:59:09;;;;;;;4.20;1.15;;;20.10;49.60;;;;;;5078938;28;20083;-91
2021/12/19 09:01:36;;;;;;;3.65;1.00;;;20.10;49.70;;;;;;5080464;28;20026;-91
2021/12/19 09:04:02;;;;;;;3.45;1.20;;;20.10;49.80;;;;;;5047524;28;20021;-91
2021/12/19 09:06:28;;;;;;;3.00;0.95;;;20.10;49.80;;;;;;5079358;28;20025;-91
2021/12/19 09:08:54;;;;;;;5.32;1.50;;;20.00;49.80;;;;;;5037332;28;20344;-94
2021/12/19 09:11:20;;;;;;;4.20;1.23;;;20.10;49.80;;;;;;5040836;28;20490;-91
2021/12/19 09:13:46;;;;;;;4.47;1.20;;;20.00;49.80;;;;;;5073771;28;20036;-94
2021/12/19 09:16:12;;;;;;;4.75;1.20;;;20.00;49.90;;;;;;5068636;28;20482;-95
2021/12/19 09:18:38;;;;;;;4.95;1.35;;;20.00;49.90;;;;;;5068523;28;20359;-93
2021/12/19 09:21:04;;;;;;;4.10;1.48;;;20.00;49.90;;;;;;5068369;28;20097;-93
2021/12/19 09:23:30;;;;;;;3.72;1.48;;;20.00;49.90;;;;;;5068070;28;20033;-95
2021/12/19 09:25:56;;;;;;;4.60;1.63;;;20.00;49.90;;;;;;5068213;28;20033;-95
2021/12/19 09:28:21;;;;;;;5.63;1.13;;;20.00;50.00;;;;;;5068247;28;20025;-93
2021/12/19 09:30:47;;;;;;;3.83;1.52;;;20.00;50.00;;;;;;5067932;28;20028;-94
2021/12/19 09:33:13;;;;;;;3.10;1.63;;;20.00;50.00;;;;;;5067927;28;20070;-94
2021/12/19 09:35:39;;;;;;;4.13;1.25;;;19.90;50.00;;;;;;5067692;28;20029;-93
2021/12/19 09:38:05;;;;;;;3.50;1.15;;;20.00;50.00;;;;;;5067818;28;20032;-94
2021/12/19 09:40:34;;;;;;;3.95;1.58;;;20.00;50.00;;;;;;5039098;28;20025;-95
2021/12/19 09:43:04;;;;;;;3.20;1.20;;;20.00;50.10;;;;;;5064153;28;20492;-90
2021/12/19 09:45:31;;;;;;;5.38;1.25;;;19.90;50.00;;;;;;5065158;28;20105;-89
2021/12/19 09:47:57;;;;;;;5.40;1.20;;;19.90;50.10;;;;;;5063292;28;20071;-92
2021/12/19 09:50:23;;;;;;;3.70;1.30;;;20.00;50.10;;;;;;5058207;28;20021;-88
2021/12/19 09:52:52;;;;;;;5.97;1.20;;;20.00;50.10;;;;;;5057501;28;20107;-89
2021/12/19 09:55:21;;;;;;;7.38;1.38;;;20.00;51.10;;;;;;5058850;28;20017;-88
2021/12/19 09:57:54;;;;;;;10.48;1.45;;;20.00;50.10;;;;;;5061853;28;20029;-88
2021/12/19 10:00:22;;;;;;;13.57;1.98;;;20.00;50.30;;;;;;5065383;28;20032;-87
2021/12/19 10:02:48;;;;;;;9.00;1.70;;;20.00;50.40;;;;;;5066525;28;20033;-87
2021/12/19 10:05:19;;;;;;;8.60;1.30;;;20.00;50.60;;;;;;5064816;28;20470;-88
2021/12/19 10:07:47;;;;;;;10.55;1.60;;;20.00;50.60;;;;;;5054030;28;20119;-89
2021/12/19 10:10:23;;;;;;;11.35;1.60;;;20.00;50.70;;;;;;5054542;28;20067;-92
2021/12/19 10:12:53;;;;;;;6.38;1.40;;;20.10;50.80;;;;;;5053132;28;20028;-92
2021/12/19 10:15:26;;;;;;;11.52;1.60;;;20.10;50.80;;;;;;5054660;28;20029;-91
2021/12/19 10:17:58;;;;;;;;;;;20.10;50.70;;;;;;5055075;28;20055;-89
2021/12/19 10:20:24;;;;;;;9.63;1.85;;;20.20;50.90;;;;;;5054443;28;20251;-90
2021/12/19 10:22:49;;;;;;;5.38;1.38;;;20.20;50.80;;;;;;5053546;28;20166;-89
2021/12/19 10:25:17;;;;;;;9.48;1.65;;;20.30;50.80;;;;;;5054365;28;20497;-92
2021/12/19 10:28:04;;;;;;;14.60;1.52;;;20.40;50.80;;;;;;5053836;28;20036;-91
2021/12/19 10:30:31;;;;;;;12.35;1.73;;;20.50;50.90;;;;;;5056360;28;20036;-95
2021/12/19 10:33:09;;;;;;;8.68;1.75;;;20.50;50.70;;;;;;5058722;28;20028;-90
2021/12/19 10:35:41;;;;;;;10.57;1.63;;;20.60;50.70;;;;;;5056999;28;20029;-93
2021/12/19 10:38:23;;;;;;;11.57;1.60;;;20.60;50.50;;;;;;5059062;28;20100;-92
2021/12/19 10:41:00;;;;;;;10.52;1.63;;;20.70;50.50;;;;;;5059295;28;20052;-91
2021/12/19 10:43:30;;;;;;;10.25;1.80;;;20.70;50.30;;;;;;5055927;28;20025;-90
2021/12/19 10:46:01;;;;;;;8.98;1.45;;;20.80;50.30;;;;;;5057354;28;20112;-91
2021/12/19 10:48:36;;;;;;;13.52;1.70;;;20.80;50.20;;;;;;5054585;28;20067;-91
2021/12/19 10:51:02;;;;;;;8.45;1.50;;;20.80;50.10;;;;;;5057211;28;20017;-93
2021/12/19 10:53:42;;;;;;;8.40;1.70;;;20.90;50.10;;;;;;5059176;28;20028;-93
2021/12/19 10:56:16;;;;;;;5.32;1.70;;;20.90;50.00;;;;;;5053614;28;20028;-94
2021/12/19 10:58:54;;;;;;;6.40;1.30;;;21.00;50.00;;;;;;5059225;28;20079;-93
2021/12/19 11:01:30;;;;;;;9.50;1.63;;;21.00;49.90;;;;;;5056766;28;20036;-93
2021/12/19 11:03:58;;;;;;;8.52;1.88;;;21.00;49.90;;;;;;5058478;28;20036;-92
2021/12/19 11:06:37;;;;;;;8.95;1.70;;;21.00;49.80;;;;;;5054245;28;20036;-91
2021/12/19 11:09:13;;;;;;;10.02;1.75;;;21.10;49.80;;;;;;5053532;28;20059;-93
2021/12/19 11:11:48;;;;;;;10.55;2.03;;;21.10;49.70;;;;;;5055826;28;20025;-92
2021/12/19 11:14:38;;;;;;;5.22;1.52;;;21.10;49.70;;;;;;5052915;28;20473;-92
2021/12/19 11:17:10;;;;;;;8.85;1.70;;;21.10;49.70;;;;;;5054528;28;20522;-92
2021/12/19 11:19:38;;;;;;;7.10;1.60;;;21.10;49.70;;;;;;5058416;28;20032;-91
2021/12/19 11:22:05;;;;;;;4.80;1.20;;;21.10;49.60;;;;;;5055591;28;20374;-92
2021/12/19 11:24:31;;;;;;;8.32;1.50;;;21.10;49.60;;;;;;5055777;28;20033;-91
2021/12/19 11:27:00;;;;;;;8.82;1.90;;;21.10;49.50;;;;;;5054060;28;20363;-92
2021/12/19 11:29:27;;;;;;;6.63;1.83;;;21.10;49.50;;;;;;5054619;28;20033;-91
2021/12/19 11:31:58;;;;;;;8.88;1.73;;;21.10;49.50;;;;;;5052917;28;20025;-90
2021/12/19 11:34:45;;;;;;;5.65;1.50;;;21.10;49.50;;;;;;5052502;28;20017;-93
2021/12/19 11:37:14;;;;;;;6.47;1.73;;;21.10;49.70;;;;;;5052805;28;20017;-90
2021/12/19 11:39:46;;;;;;;7.18;1.60;;;21.10;49.70;;;;;;5053833;28;20071;-92
2021/12/19 11:42:18;;;;;;;5.97;1.73;;;21.10;49.80;;;;;;5049940;28;20029;-90
2021/12/19 11:47:45;;;;;;;5.55;1.60;;;21.10;49.90;;;;;;5055015;28;20628;-93
2021/12/19 11:50:21;;;;;;;7.32;1.50;;;21.10;49.90;;;;;;5052832;28;20025;-92
2021/12/19 11:52:48;;;;;;;5.57;1.40;;;21.10;49.90;;;;;;5052319;28;20057;-91
2021/12/19 11:55:14;;;;;;;6.50;1.27;;;21.10;49.90;;;;;;5052270;28;20049;-91
2021/12/19 11:57:41;;;;;;;6.22;1.80;;;21.00;49.80;;;;;;5053260;28;20056;-90
2021/12/19 12:00:26;;;;;;;8.38;1.65;;;21.00;49.80;;;;;;5053123;28;20028;-91
2021/12/19 12:03:14;;;;;;;6.32;1.55;;;21.00;49.60;;;;;;5052999;28;20039;-91
2021/12/19 12:06:03;;;;;;;5.43;1.23;;;21.00;49.60;;;;;;5053104;28;20080;-91
2021/12/19 12:08:29;;;;;;;6.10;1.30;;;21.00;49.70;;;;;;5031268;28;20130;-90
2021/12/19 12:10:56;;;;;;;6.68;1.33;;;21.00;49.70;;;;;;5055630;28;20021;-90
2021/12/19 12:13:27;;;;;;;5.43;1.50;;;21.00;49.70;;;;;;5055566;28;20127;-90
2021/12/19 12:16:03;;;;;;;7.00;1.30;;;21.00;49.60;;;;;;5056929;28;20104;-89
2021/12/19 12:18:31;;;;;;;6.80;1.60;;;21.00;49.60;;;;;;5055666;28;20518;-91
2021/12/19 12:20:57;;;;;;;7.68;1.40;;;20.90;49.40;;;;;;5038919;28;20036;-93
2021/12/19 12:23:27;;;;;;;5.35;1.33;;;20.90;49.50;;;;;;5055454;28;20102;-89
2021/12/19 12:25:52;;;;;;;6.18;1.60;;;20.90;49.40;;;;;;5055766;28;20024;-91
2021/12/19 12:28:20;;;;;;;6.63;1.42;;;20.90;49.60;;;;;;5056482;28;20025;-90
2021/12/19 12:30:52;;;;;;;7.45;1.60;;;20.90;49.60;;;;;;5055674;28;20048;-90
2021/12/19 12:33:20;;;;;;;6.57;1.48;;;20.90;49.60;;;;;;5055317;28;20112;-91
2021/12/19 12:35:48;;;;;;;6.47;1.50;;;20.90;49.70;;;;;;5055678;28;20060;-90
2021/12/19 12:38:15;;;;;;;6.18;1.10;;;20.90;49.70;;;;;;5055273;28;20033;-89
2021/12/19 12:43:16;;;;;;;6.47;1.55;;;20.90;49.70;;;;;;5056350;28;20107;-92
2021/12/19 12:45:50;;;;;;;7.68;1.38;;;20.90;49.80;;;;;;5055795;28;20024;-91
2021/12/19 12:48:27;;;;;;;6.07;1.60;;;20.90;49.80;;;;;;5055749;28;20045;-88
2021/12/19 12:50:53;;;;;;;4.43;1.48;;;20.90;49.80;;;;;;5055021;28;20112;-90
2021/12/19 12:53:28;;;;;;;11.13;1.70;;;20.90;49.80;;;;;;5054978;28;20112;-92
2021/12/19 12:56:09;;;;;;;7.25;1.67;;;20.90;49.80;;;;;;5054883;28;20147;-89
2021/12/19 12:58:42;;;;;;;4.32;1.30;;;20.90;49.70;;;;;;5056101;28;20083;-91
2021/12/19 13:01:16;;;;;;;4.90;1.42;;;20.90;49.70;;;;;;5038238;28;20025;-91
2021/12/19 13:04:05;;;;;;;5.38;1.30;;;20.90;49.70;;;;;;5054646;28;20478;-92
2021/12/19 13:06:41;;;;;;;4.78;1.30;;;20.90;49.60;;;;;;5055847;28;20100;-89
2021/12/19 13:09:35;;;;;;;7.50;1.30;;;20.90;49.70;;;;;;5054500;28;20102;-88
2021/12/19 13:12:10;;;;;;;3.70;1.48;;;20.90;49.70;;;;;;5053710;28;20490;-90
2021/12/19 13:14:45;;;;;;;6.18;1.50;;;20.90;49.80;;;;;;5055935;28;20029;-90
2021/12/19 13:17:13;;;;;;;3.78;1.30;;;20.90;49.70;;;;;;5055378;28;20028;-88
2021/12/19 13:19:45;;;;;;;3.92;1.00;;;20.90;49.60;;;;;;5054513;28;20048;-90
2021/12/19 13:22:22;;;;;;;5.13;1.40;;;20.90;49.60;;;;;;5054440;28;20102;-91
2021/12/19 13:24:49;;;;;;;4.72;1.50;;;20.90;49.70;;;;;;5038107;28;20390;-88
2021/12/19 13:27:19;;;;;;;3.08;1.17;;;20.90;49.60;;;;;;5055221;28;20025;-90
2021/12/19 13:29:59;;;;;;;4.95;1.30;;;20.90;49.60;;;;;;5055342;28;20021;-91
2021/12/19 13:32:31;;;;;;;4.90;1.50;;;20.90;49.50;;;;;;5052455;28;20021;-88
2021/12/19 13:34:59;;;;;;;5.10;1.40;;;20.90;49.60;;;;;;5051486;28;20009;-92
2021/12/19 13:37:33;;;;;;;7.20;1.70;;;20.90;49.60;;;;;;5053483;28;20037;-89
2021/12/19 13:40:04;;;;;;;5.93;1.58;;;20.90;49.60;;;;;;5055152;28;20364;-89
2021/12/19 13:42:44;;;;;;;5.43;1.42;;;20.90;49.60;;;;;;5053494;28;20029;-92
2021/12/19 13:45:48;;;;;;;3.97;1.35;;;20.90;49.60;;;;;;5070438;28;20570;-90
2021/12/19 13:48:24;;;;;;;4.60;1.58;;;20.90;49.60;;;;;;5054049;28;20068;-89
2021/12/19 13:51:02;;;;;;;3.22;1.10;;;20.90;49.60;;;;;;5054082;28;20021;-92
2021/12/19 13:53:30;;;;;;;6.82;1.50;;;20.90;49.60;;;;;;5053827;28;20024;-91